Time;durP1;ratioP1;P1;durP2;ratioP2;P2;SDS_P1;SDS_P2;PMS_P1;PMS_P2;Temp;Humidity;BMP_temperature;BMP_pressure;BME280_temperature;BME280_humidity;BME280_pressure;Samples;Min_cycle;Max_cycle;Signal;HPM_P1;HPM_P2
2021/07/26 00:01:03;;;;;;;3.07;2.70;;;;;;;;;;4930903;29;20457;-76
2021/07/26 00:03:30;;;;;;;3.03;2.80;;;;;;;;;;4926614;29;20458;-76
2021/07/26 00:06:00;;;;;;;3.33;2.50;;;;;;;;;;4922503;29;20448;-76
2021/07/26 00:08:27;;;;;;;2.87;2.57;;;;;;;;;;4913548;29;20724;-76
2021/07/26 00:11:02;;;;;;;3.40;2.90;;;;;;;;;;4920621;29;20845;-76
2021/07/26 00:13:29;;;;;;;3.50;3.20;;;;;;;;;;4915408;29;20490;-76
2021/07/26 00:15:56;;;;;;;2.70;2.50;;;;;;;;;;4920562;29;20465;-76
2021/07/26 00:18:23;;;;;;;3.37;2.73;;;;;;;;;;4900909;29;20482;-76
2021/07/26 00:20:51;;;;;;;3.37;3.07;;;;;;;;;;4932387;29;20929;-76
2021/07/26 00:23:19;;;;;;;3.63;2.60;;;;;;;;;;4931663;29;20485;-76
2021/07/26 00:25:46;;;;;;;4.50;3.23;;;;;;;;;;4929950;29;20470;-76
2021/07/26 00:28:13;;;;;;;3.27;2.40;;;;;;;;;;4935259;29;20475;-76
2021/07/26 00:30:41;;;;;;;3.57;2.70;;;;;;;;;;4929272;29;20945;-76
2021/07/26 00:33:30;;;;;;;3.40;2.63;;;;;;;;;;4922083;29;20467;-76
2021/07/26 00:35:57;;;;;;;6.70;2.93;;;;;;;;;;4918057;29;20953;-76
2021/07/26 00:38:25;;;;;;;5.77;2.93;;;;;;;;;;4920080;29;20486;-76
2021/07/26 00:40:52;;;;;;;3.00;2.60;;;;;;;;;;4926149;29;20486;-76
2021/07/26 00:43:20;;;;;;;3.33;2.63;;;;;;;;;;4932061;29;20435;-76
2021/07/26 00:45:50;;;;;;;3.33;2.43;;;;;;;;;;4932905;29;20443;-75
2021/07/26 00:48:18;;;;;;;3.27;2.97;;;;;;;;;;4926448;29;20538;-76
2021/07/26 00:50:45;;;;;;;3.90;2.70;;;;;;;;;;4916469;29;20454;-76
2021/07/26 00:53:12;;;;;;;3.47;2.53;;;;;;;;;;4925434;29;20473;-76
2021/07/26 00:55:41;;;;;;;3.20;2.90;;;;;;;;;;4934389;29;20466;-76
2021/07/26 00:58:08;;;;;;;4.17;3.20;;;;;;;;;;4923335;29;20468;-76
2021/07/26 01:00:36;;;;;;;3.03;2.43;;;;;;;;;;4928728;29;20467;-75
2021/07/26 01:03:03;;;;;;;3.90;2.80;;;;;;;;;;4926342;29;20464;-76
2021/07/26 01:05:30;;;;;;;3.47;3.17;;;;;;;;;;4934617;29;20932;-77
2021/07/26 01:07:57;;;;;;;2.70;2.50;;;;;;;;;;4932471;29;21126;-77
2021/07/26 01:10:24;;;;;;;3.40;3.10;;;;;;;;;;4919170;29;20461;-77
2021/07/26 01:12:53;;;;;;;4.83;3.10;;;;;;;;;;4920185;29;20468;-77
2021/07/26 01:15:20;;;;;;;2.33;2.13;;;;;;;;;;4932686;29;20482;-76
2021/07/26 01:18:06;;;;;;;3.27;2.97;;;;;;;;;;4927161;29;20490;-77
2021/07/26 01:20:34;;;;;;;4.03;2.67;;;;;;;;;;4920395;29;20853;-76
2021/07/26 01:23:01;;;;;;;3.30;2.40;;;;;;;;;;4929717;29;20465;-77
2021/07/26 01:25:28;;;;;;;4.23;2.63;;;;;;;;;;4915900;29;20444;-77
2021/07/26 01:27:55;;;;;;;4.40;2.83;;;;;;;;;;4932234;28;20486;-76
2021/07/26 01:30:23;;;;;;;3.30;2.63;;;;;;;;;;4929496;29;20960;-76
2021/07/26 01:32:50;;;;;;;4.77;2.77;;;;;;;;;;4933850;29;20454;-76
2021/07/26 01:35:17;;;;;;;3.33;2.80;;;;;;;;;;4922483;29;20490;-76
2021/07/26 01:37:45;;;;;;;2.90;2.60;;;;;;;;;;4915294;29;20449;-76
2021/07/26 01:40:13;;;;;;;5.87;2.90;;;;;;;;;;4919353;29;20583;-76
2021/07/26 01:42:42;;;;;;;3.60;2.57;;;;;;;;;;4928360;29;20416;-77
2021/07/26 01:45:10;;;;;;;3.57;3.17;;;;;;;;;;4913997;29;20940;-77
2021/07/26 01:47:40;;;;;;;3.30;3.00;;;;;;;;;;4933468;29;20834;-76
2021/07/26 01:50:08;;;;;;;2.73;2.53;;;;;;;;;;4933945;29;20453;-77
2021/07/26 01:52:35;;;;;;;3.30;2.80;;;;;;;;;;4907482;29;20467;-76
2021/07/26 01:55:04;;;;;;;5.03;3.27;;;;;;;;;;4922018;29;20672;-76
2021/07/26 01:57:32;;;;;;;5.00;3.07;;;;;;;;;;4930348;29;20457;-75
2021/07/26 01:59:59;;;;;;;4.40;3.07;;;;;;;;;;4925724;29;20968;-77
2021/07/26 02:02:26;;;;;;;3.83;3.03;;;;;;;;;;4920640;29;20441;-76
2021/07/26 02:04:54;;;;;;;2.87;2.60;;;;;;;;;;4924618;29;20443;-76
2021/07/26 02:07:21;;;;;;;7.30;3.03;;;;;;;;;;4917179;29;20820;-77
2021/07/26 02:09:48;;;;;;;4.30;2.90;;;;;;;;;;4931650;29;20480;-76
2021/07/26 02:12:16;;;;;;;2.87;2.43;;;;;;;;;;4930799;29;20838;-77
2021/07/26 02:14:44;;;;;;;5.20;3.37;;;;;;;;;;4929444;29;20994;-76
2021/07/26 02:17:11;;;;;;;5.60;3.50;;;;;;;;;;4914208;29;20594;-77
2021/07/26 02:19:38;;;;;;;5.17;3.07;;;;;;;;;;4914146;29;20485;-76
2021/07/26 02:22:05;;;;;;;4.70;3.30;;;;;;;;;;4919255;29;20491;-76
2021/07/26 02:24:33;;;;;;;3.97;3.23;;;;;;;;;;4920460;29;20818;-75
2021/07/26 02:27:00;;;;;;;4.53;3.23;;;;;;;;;;4917973;29;20465;-75
2021/07/26 02:29:28;;;;;;;3.90;3.37;;;;;;;;;;4929843;29;20467;-76
2021/07/26 02:31:55;;;;;;;3.10;2.80;;;;;;;;;;4917139;29;20446;-76
2021/07/26 02:34:22;;;;;;;3.50;3.20;;;;;;;;;;4926195;29;20485;-76
2021/07/26 02:36:50;;;;;;;4.30;3.23;;;;;;;;;;4931951;29;20453;-76
2021/07/26 02:39:17;;;;;;;3.67;3.30;;;;;;;;;;4924121;29;20509;-76
2021/07/26 02:41:44;;;;;;;4.20;3.80;;;;;;;;;;4920319;29;20461;-76
2021/07/26 02:44:11;;;;;;;5.40;3.37;;;;;;;;;;4930431;29;20913;-76
2021/07/26 02:46:40;;;;;;;3.90;3.40;;;;;;;;;;4922837;28;20482;-75
2021/07/26 02:49:07;;;;;;;4.87;3.77;;;;;;;;;;4932465;29;20473;-76
2021/07/26 02:51:34;;;;;;;3.53;3.20;;;;;;;;;;4916492;29;20462;-75
2021/07/26 02:54:01;;;;;;;4.37;3.30;;;;;;;;;;4920451;29;20979;-76
2021/07/26 02:56:28;;;;;;;4.60;3.77;;;;;;;;;;4924004;29;20933;-76
2021/07/26 02:58:56;;;;;;;4.60;4.00;;;;;;;;;;4926499;29;20492;-75
2021/07/26 03:01:23;;;;;;;5.90;4.10;;;;;;;;;;4916178;29;20480;-75
2021/07/26 03:03:52;;;;;;;4.03;3.30;;;;;;;;;;4915938;29;20846;-76
2021/07/26 03:06:20;;;;;;;4.60;3.20;;;;;;;;;;4913447;29;20797;-75
2021/07/26 03:08:47;;;;;;;4.30;3.57;;;;;;;;;;4914948;29;20855;-76
2021/07/26 03:11:14;;;;;;;3.97;3.10;;;;;;;;;;4931053;29;20830;-76
2021/07/26 03:13:42;;;;;;;3.63;3.33;;;;;;;;;;4925804;29;20472;-75
2021/07/26 03:16:10;;;;;;;5.10;3.80;;;;;;;;;;4919749;29;20493;-76
2021/07/26 03:18:38;;;;;;;4.90;3.97;;;;;;;;;;4914318;29;20464;-77
2021/07/26 03:21:06;;;;;;;5.23;3.70;;;;;;;;;;4913752;29;20454;-76
2021/07/26 03:23:34;;;;;;;4.20;3.37;;;;;;;;;;4904381;29;20478;-75
2021/07/26 03:26:01;;;;;;;4.43;3.37;;;;;;;;;;4929573;29;20465;-76
2021/07/26 03:28:28;;;;;;;5.10;4.00;;;;;;;;;;4927545;29;20994;-76
2021/07/26 03:30:55;;;;;;;4.20;3.60;;;;;;;;;;4932080;29;20436;-75
2021/07/26 03:33:23;;;;;;;5.07;3.80;;;;;;;;;;4924720;29;20446;-76
2021/07/26 03:35:50;;;;;;;6.63;3.77;;;;;;;;;;4913493;29;20596;-75
2021/07/26 03:38:20;;;;;;;5.93;4.33;;;;;;;;;;4914920;29;20454;-76
2021/07/26 03:40:48;;;;;;;4.30;3.30;;;;;;;;;;4921987;29;21574;-76
2021/07/26 03:43:15;;;;;;;6.57;4.33;;;;;;;;;;4929768;29;20925;-77
2021/07/26 03:45:43;;;;;;;3.97;3.50;;;;;;;;;;4930258;29;20457;-76
2021/07/26 03:48:10;;;;;;;6.53;3.40;;;;;;;;;;4914681;29;20484;-75
2021/07/26 03:50:37;;;;;;;6.33;4.13;;;;;;;;;;4912734;29;20502;-78
2021/07/26 03:53:05;;;;;;;6.23;3.90;;;;;;;;;;4921612;29;20503;-77
2021/07/26 03:55:34;;;;;;;4.10;3.20;;;;;;;;;;4920083;29;20475;-77
2021/07/26 03:58:03;;;;;;;4.33;3.93;;;;;;;;;;4930733;29;20491;-77
2021/07/26 04:00:31;;;;;;;3.93;3.30;;;;;;;;;;4935040;29;20422;-76
2021/07/26 04:03:05;;;;;;;7.03;4.07;;;;;;;;;;4934158;29;20462;-77
2021/07/26 04:05:36;;;;;;;4.60;3.43;;;;;;;;;;4906903;29;21038;-77
2021/07/26 04:08:05;;;;;;;5.40;3.67;;;;;;;;;;4916513;29;20462;-76
2021/07/26 04:10:34;;;;;;;4.13;3.40;;;;;;;;;;4934618;29;20471;-76
2021/07/26 04:13:02;;;;;;;5.63;3.80;;;;;;;;;;4931669;29;20495;-76
2021/07/26 04:15:29;;;;;;;4.47;3.60;;;;;;;;;;4921016;29;20979;-78
2021/07/26 04:17:56;;;;;;;5.27;4.50;;;;;;;;;;4920180;29;20467;-77
2021/07/26 04:20:23;;;;;;;4.00;3.27;;;;;;;;;;4918521;29;20444;-76
2021/07/26 04:22:50;;;;;;;5.97;3.47;;;;;;;;;;4918937;29;20487;-76
2021/07/26 04:25:18;;;;;;;3.93;3.20;;;;;;;;;;4912699;29;20954;-76
2021/07/26 04:27:47;;;;;;;3.70;3.40;;;;;;;;;;4922934;29;20440;-76
2021/07/26 04:30:14;;;;;;;5.00;3.03;;;;;;;;;;4937540;29;20503;-76
2021/07/26 04:32:42;;;;;;;4.83;3.27;;;;;;;;;;4929111;29;20463;-76
2021/07/26 04:35:10;;;;;;;4.53;3.30;;;;;;;;;;4933508;29;20451;-76
2021/07/26 04:37:37;;;;;;;5.30;3.83;;;;;;;;;;4932730;29;20495;-77
2021/07/26 04:40:04;;;;;;;4.33;3.80;;;;;;;;;;4917774;29;20802;-76
2021/07/26 04:42:31;;;;;;;5.87;3.83;;;;;;;;;;4917685;29;20459;-77
2021/07/26 04:45:00;;;;;;;3.87;3.33;;;;;;;;;;4916520;29;20424;-76
2021/07/26 04:47:27;;;;;;;5.20;4.00;;;;;;;;;;4928179;29;20460;-76
2021/07/26 04:49:54;;;;;;;3.90;3.50;;;;;;;;;;4935046;29;20424;-75
2021/07/26 04:52:21;;;;;;;7.57;3.90;;;;;;;;;;4918885;29;21040;-76
2021/07/26 04:54:48;;;;;;;6.30;4.03;;;;;;;;;;4932969;29;20471;-74
2021/07/26 04:57:16;;;;;;;4.17;3.70;;;;;;;;;;4932556;29;20430;-76
2021/07/26 04:59:43;;;;;;;6.10;3.70;;;;;;;;;;4929281;29;20448;-75
2021/07/26 05:02:12;;;;;;;5.00;3.93;;;;;;;;;;4934504;29;20424;-76
2021/07/26 05:04:39;;;;;;;5.03;3.60;;;;;;;;;;4930677;29;20477;-75
2021/07/26 05:07:06;;;;;;;5.40;3.80;;;;;;;;;;4934795;29;20453;-75
2021/07/26 05:09:37;;;;;;;4.67;3.80;;;;;;;;;;4910409;29;20490;-75
2021/07/26 05:12:05;;;;;;;4.90;3.73;;;;;;;;;;4914896;29;20428;-76
2021/07/26 05:14:32;;;;;;;5.53;3.70;;;;;;;;;;4926625;29;20571;-76
2021/07/26 05:16:59;;;;;;;6.90;3.70;;;;;;;;;;4914141;29;20434;-74
2021/07/26 05:19:28;;;;;;;3.60;3.20;;;;;;;;;;4922949;29;20473;-75
2021/07/26 05:21:55;;;;;;;5.10;3.93;;;;;;;;;;4925208;29;20462;-76
2021/07/26 05:24:24;;;;;;;7.50;3.90;;;;;;;;;;4930835;29;20480;-75
2021/07/26 05:26:57;;;;;;;5.43;4.00;;;;;;;;;;4930367;29;20545;-76
2021/07/26 05:29:24;;;;;;;5.80;3.97;;;;;;;;;;4919130;29;20575;-75
2021/07/26 05:31:51;;;;;;;5.20;4.17;;;;;;;;;;4914912;29;20451;-76
2021/07/26 05:34:19;;;;;;;4.57;3.97;;;;;;;;;;4920736;29;20469;-75
2021/07/26 05:36:47;;;;;;;5.20;3.67;;;;;;;;;;4935162;29;20863;-75
2021/07/26 05:39:14;;;;;;;5.13;4.00;;;;;;;;;;4929694;29;20490;-76
2021/07/26 05:41:41;;;;;;;4.80;4.37;;;;;;;;;;4927781;29;20445;-76
2021/07/26 05:44:08;;;;;;;4.27;3.87;;;;;;;;;;4915051;29;20813;-76
2021/07/26 05:46:36;;;;;;;4.60;4.00;;;;;;;;;;4920901;29;20470;-75
2021/07/26 05:49:03;;;;;;;5.17;4.30;;;;;;;;;;4914913;29;20477;-76
2021/07/26 05:51:30;;;;;;;4.10;3.70;;;;;;;;;;4920542;29;20971;-76
2021/07/26 05:53:58;;;;;;;5.13;4.00;;;;;;;;;;4931342;29;20454;-75
2021/07/26 05:56:28;;;;;;;6.80;4.17;;;;;;;;;;4932141;29;20481;-75
2021/07/26 05:58:55;;;;;;;4.43;4.03;;;;;;;;;;4921003;29;20574;-74
2021/07/26 06:01:35;;;;;;;4.93;3.90;;;;;;;;;;4914751;29;20447;-75
2021/07/26 06:04:03;;;;;;;8.97;4.43;;;;;;;;;;4922556;29;20458;-75
2021/07/26 06:06:30;;;;;;;5.27;4.50;;;;;;;;;;4927237;28;20871;-74
2021/07/26 06:08:59;;;;;;;11.40;5.67;;;;;;;;;;4931839;28;20538;-75
2021/07/26 06:11:26;;;;;;;4.90;3.83;;;;;;;;;;4932275;29;20815;-75
2021/07/26 06:13:54;;;;;;;4.90;3.70;;;;;;;;;;4925749;29;20856;-75
2021/07/26 06:16:21;;;;;;;3.73;3.33;;;;;;;;;;4921220;29;20494;-74
2021/07/26 06:18:48;;;;;;;3.60;3.20;;;;;;;;;;4928581;29;21017;-74
2021/07/26 06:21:15;;;;;;;6.93;3.50;;;;;;;;;;4933945;29;20820;-76
2021/07/26 06:23:42;;;;;;;5.23;3.57;;;;;;;;;;4934479;29;20469;-76
2021/07/26 06:26:11;;;;;;;4.50;3.43;;;;;;;;;;4918610;29;20829;-76
2021/07/26 06:28:38;;;;;;;2.93;2.63;;;;;;;;;;4933751;29;20561;-78
2021/07/26 06:31:06;;;;;;;3.67;3.27;;;;;;;;;;4930622;29;20454;-81
2021/07/26 06:33:36;;;;;;;4.07;3.63;;;;;;;;;;4928539;29;20462;-89
2021/07/26 06:36:04;;;;;;;3.00;2.63;;;;;;;;;;4915796;29;20492;-83
2021/07/26 06:38:31;;;;;;;3.50;3.20;;;;;;;;;;4931206;29;20486;-79
2021/07/26 06:40:58;;;;;;;3.83;3.43;;;;;;;;;;4926509;29;20490;-76
2021/07/26 06:43:27;;;;;;;4.33;3.13;;;;;;;;;;4934147;29;20469;-75
2021/07/26 06:45:54;;;;;;;4.97;3.30;;;;;;;;;;4935247;29;20442;-76
2021/07/26 06:48:23;;;;;;;3.33;3.03;;;;;;;;;;4921830;29;20483;-76
2021/07/26 06:50:51;;;;;;;6.53;3.27;;;;;;;;;;4916210;29;20462;-76
2021/07/26 06:53:19;;;;;;;3.60;3.07;;;;;;;;;;4921472;29;20467;-76
2021/07/26 06:55:46;;;;;;;2.87;2.47;;;;;;;;;;4929913;29;21068;-76
2021/07/26 06:58:13;;;;;;;6.00;3.80;;;;;;;;;;4924619;29;20571;-75
2021/07/26 07:00:41;;;;;;;3.47;2.97;;;;;;;;;;4930531;29;20463;-76
2021/07/26 07:03:09;;;;;;;3.70;3.40;;;;;;;;;;4932904;29;20457;-76
2021/07/26 07:05:36;;;;;;;4.30;2.70;;;;;;;;;;4930873;29;20462;-75
2021/07/26 07:08:03;;;;;;;4.53;3.27;;;;;;;;;;4934364;28;20961;-75
2021/07/26 07:10:31;;;;;;;4.33;3.30;;;;;;;;;;4936662;28;20463;-76
2021/07/26 07:13:00;;;;;;;5.07;3.00;;;;;;;;;;4926000;29;20871;-75
2021/07/26 07:15:28;;;;;;;3.87;2.60;;;;;;;;;;4929537;29;20490;-76
2021/07/26 07:17:56;;;;;;;5.27;3.83;;;;;;;;;;4928410;29;20483;-76
2021/07/26 07:20:24;;;;;;;3.17;2.43;;;;;;;;;;4916299;29;20819;-76
2021/07/26 07:22:52;;;;;;;3.07;2.77;;;;;;;;;;4929445;29;20462;-75
2021/07/26 07:25:19;;;;;;;3.47;3.17;;;;;;;;;;4925755;29;20463;-76
2021/07/26 07:27:47;;;;;;;3.87;3.03;;;;;;;;;;4923443;29;20482;-76
2021/07/26 07:30:16;;;;;;;2.80;2.60;;;;;;;;;;4929238;29;20655;-75
2021/07/26 07:32:43;;;;;;;3.10;2.80;;;;;;;;;;4909166;29;20447;-76
2021/07/26 07:35:12;;;;;;;3.27;2.97;;;;;;;;;;4921163;29;20457;-76
2021/07/26 07:37:39;;;;;;;2.90;2.70;;;;;;;;;;4918173;29;20493;-74
2021/07/26 07:40:07;;;;;;;3.33;2.60;;;;;;;;;;4921499;29;20490;-76
2021/07/26 07:42:34;;;;;;;3.20;2.90;;;;;;;;;;4932680;29;20467;-76
2021/07/26 07:45:02;;;;;;;3.77;2.60;;;;;;;;;;4934334;29;20968;-76
2021/07/26 07:47:29;;;;;;;3.50;3.00;;;;;;;;;;4928131;29;20912;-76
2021/07/26 07:49:56;;;;;;;3.33;2.97;;;;;;;;;;4935766;29;20530;-76
2021/07/26 07:52:24;;;;;;;3.87;2.53;;;;;;;;;;4935255;29;20793;-76
2021/07/26 07:54:52;;;;;;;3.83;3.43;;;;;;;;;;4928599;29;20470;-75
2021/07/26 07:57:20;;;;;;;3.57;3.27;;;;;;;;;;4932644;29;20493;-74
2021/07/26 07:59:48;;;;;;;3.47;3.17;;;;;;;;;;4935414;29;20454;-74
2021/07/26 08:02:15;;;;;;;2.97;2.63;;;;;;;;;;4933360;29;20459;-76
2021/07/26 08:04:42;;;;;;;3.20;2.80;;;;;;;;;;4935385;29;20844;-74
2021/07/26 08:07:10;;;;;;;3.47;3.03;;;;;;;;;;4928776;29;20944;-75
2021/07/26 08:09:38;;;;;;;4.53;2.70;;;;;;;;;;4931564;29;20550;-75
2021/07/26 08:12:05;;;;;;;4.57;3.00;;;;;;;;;;4922574;29;20469;-75
2021/07/26 08:14:33;;;;;;;2.70;2.50;;;;;;;;;;4934720;29;20497;-75
2021/07/26 08:17:02;;;;;;;3.07;2.87;;;;;;;;;;4930204;29;20486;-75
2021/07/26 08:19:29;;;;;;;2.80;2.50;;;;;;;;;;4930079;29;20478;-75
2021/07/26 08:21:56;;;;;;;8.93;2.80;;;;;;;;;;4934673;29;20474;-74
2021/07/26 08:24:23;;;;;;;3.30;2.60;;;;;;;;;;4934737;29;20439;-74
2021/07/26 08:26:52;;;;;;;5.97;2.97;;;;;;;;;;4932486;29;20962;-75
2021/07/26 08:29:19;;;;;;;2.77;2.57;;;;;;;;;;4934386;29;20462;-75
2021/07/26 08:31:46;;;;;;;4.60;3.00;;;;;;;;;;4933297;29;20461;-75
2021/07/26 08:34:13;;;;;;;2.90;2.53;;;;;;;;;;4933714;29;20459;-76
2021/07/26 08:36:40;;;;;;;3.20;2.73;;;;;;;;;;4940750;28;20862;-76
2021/07/26 08:39:08;;;;;;;6.37;2.97;;;;;;;;;;4934913;29;20486;-76
2021/07/26 08:41:36;;;;;;;2.83;2.63;;;;;;;;;;4931520;29;20573;-75
2021/07/26 08:44:04;;;;;;;2.73;2.50;;;;;;;;;;4929349;29;20473;-74
2021/07/26 08:46:33;;;;;;;2.50;2.30;;;;;;;;;;4934932;29;20450;-75
2021/07/26 08:49:02;;;;;;;3.47;2.60;;;;;;;;;;4931617;29;20494;-75
2021/07/26 08:51:31;;;;;;;2.73;2.43;;;;;;;;;;4923287;29;20801;-75
2021/07/26 08:54:01;;;;;;;2.53;2.33;;;;;;;;;;4934505;29;20449;-75
2021/07/26 08:56:28;;;;;;;2.47;2.27;;;;;;;;;;4933164;29;20482;-76
2021/07/26 08:58:55;;;;;;;2.80;2.00;;;;;;;;;;4932600;29;20498;-75
2021/07/26 09:01:24;;;;;;;2.60;2.33;;;;;;;;;;4928975;29;20534;-76
2021/07/26 09:03:52;;;;;;;2.63;2.17;;;;;;;;;;4917980;29;20467;-76
2021/07/26 09:06:20;;;;;;;2.23;2.03;;;;;;;;;;4916804;29;20450;-76
2021/07/26 09:08:47;;;;;;;3.37;2.60;;;;;;;;;;4927707;29;20509;-77
2021/07/26 09:11:14;;;;;;;2.20;2.00;;;;;;;;;;4932859;29;20446;-76
2021/07/26 09:13:44;;;;;;;3.30;2.03;;;;;;;;;;4931920;29;20477;-76
2021/07/26 09:16:19;;;;;;;2.20;1.80;;;;;;;;;;4933850;29;20486;-75
2021/07/26 09:19:01;;;;;;;2.97;2.00;;;;;;;;;;4921708;29;20513;-75
2021/07/26 09:21:43;;;;;;;2.40;2.20;;;;;;;;;;4923834;29;20542;-75
2021/07/26 09:24:10;;;;;;;3.00;2.70;;;;;;;;;;4912249;29;20986;-74
2021/07/26 09:26:37;;;;;;;4.83;2.37;;;;;;;;;;4933189;29;20450;-75
2021/07/26 09:29:19;;;;;;;5.27;2.50;;;;;;;;;;4932779;29;20552;-75
2021/07/26 09:31:57;;;;;;;3.13;2.10;;;;;;;;;;4901221;29;20467;-76
2021/07/26 09:34:25;;;;;;;3.20;2.60;;;;;;;;;;4925316;29;20581;-74
2021/07/26 09:36:53;;;;;;;3.40;2.47;;;;;;;;;;4924545;29;21211;-74
2021/07/26 09:39:27;;;;;;;5.00;2.70;;;;;;;;;;4930613;29;20482;-74
2021/07/26 09:41:55;;;;;;;4.37;2.57;;;;;;;;;;4931291;29;20471;-75
2021/07/26 09:44:24;;;;;;;3.00;2.70;;;;;;;;;;4923014;29;20455;-73
2021/07/26 09:46:53;;;;;;;3.10;2.37;;;;;;;;;;4934428;29;20497;-75
2021/07/26 09:49:21;;;;;;;3.07;2.33;;;;;;;;;;4904682;29;20486;-75
2021/07/26 09:54:46;;;;;;;2.97;2.50;;;;;;;;;;5122642;27;20603;-74
2021/07/26 09:57:18;;;;;;;4.53;2.77;;;;;;;;;;5096650;28;20975;-74
2021/07/26 09:59:46;;;;;;;3.33;2.33;;;;;;;;;;5085661;28;21128;-75
2021/07/26 10:02:14;;;;;;;2.33;2.13;;;;;;;;;;5079835;28;21025;-75
2021/07/26 10:04:42;;;;;;;2.30;2.10;;;;;;;;;;5085956;28;20533;-75
2021/07/26 10:07:09;;;;;;;2.33;2.10;;;;;;;;;;5082213;28;20435;-75
2021/07/26 10:09:36;;;;;;;2.23;2.03;;;;;;;;;;5077430;28;21529;-76
2021/07/26 10:12:05;;;;;;;2.60;2.40;;;;;;;;;;5077634;28;20440;-75
2021/07/26 10:14:33;;;;;;;2.47;2.23;;;;;;;;;;5082060;28;20484;-76
2021/07/26 10:17:01;;;;;;;3.87;2.50;;;;;;;;;;5084978;28;21132;-75
2021/07/26 10:19:28;;;;;;;2.33;2.10;;;;;;;;;;5075898;28;20475;-75
2021/07/26 10:21:56;;;;;;;2.10;1.90;;;;;;;;;;5083191;28;20452;-76
2021/07/26 10:24:24;;;;;;;2.50;2.10;;;;;;;;;;5080289;28;20443;-75
2021/07/26 10:26:58;;;;;;;2.93;2.40;;;;;;;;;;5073976;28;20448;-75
2021/07/26 10:29:46;;;;;;;3.23;2.40;;;;;;;;;;5085376;28;20459;-75
2021/07/26 10:32:28;;;;;;;2.70;2.13;;;;;;;;;;5107731;28;20448;-74
2021/07/26 10:34:55;;;;;;;2.60;2.40;;;;;;;;;;5073774;28;20452;-75
2021/07/26 10:37:37;;;;;;;4.73;2.00;;;;;;;;;;5065942;28;20432;-75
2021/07/26 10:40:19;;;;;;;4.40;2.20;;;;;;;;;;5104547;27;20961;-75
2021/07/26 10:42:47;;;;;;;2.43;2.10;;;;;;;;;;5073023;28;20459;-74
2021/07/26 10:45:29;;;;;;;3.33;2.73;;;;;;;;;;5074603;28;20451;-74
2021/07/26 10:48:11;;;;;;;2.40;2.10;;;;;;;;;;5083945;28;20468;-75
2021/07/26 10:50:40;;;;;;;2.40;2.20;;;;;;;;;;5079295;28;20824;-74
2021/07/26 10:53:07;;;;;;;2.90;2.47;;;;;;;;;;5084106;28;20490;-74
2021/07/26 10:55:49;;;;;;;3.03;2.20;;;;;;;;;;5078758;28;20451;-74
2021/07/26 10:58:43;;;;;;;2.50;2.30;;;;;;;;;;5079332;28;20483;-74
2021/07/26 11:01:26;;;;;;;2.60;2.30;;;;;;;;;;5083729;28;20801;-74
2021/07/26 11:03:54;;;;;;;2.20;2.00;;;;;;;;;;5101398;28;20512;-75
2021/07/26 11:06:35;;;;;;;2.80;2.60;;;;;;;;;;5070655;28;20705;-74
2021/07/26 11:09:17;;;;;;;2.60;2.40;;;;;;;;;;5061972;28;20828;-75
2021/07/26 11:11:46;;;;;;;5.37;4.17;;;;;;;;;;5072163;28;20433;-74
2021/07/26 11:14:14;;;;;;;3.40;2.87;;;;;;;;;;5072542;28;20506;-75
2021/07/26 11:16:58;;;;;;;5.30;3.10;;;;;;;;;;5070575;28;20840;-75
2021/07/26 11:19:34;;;;;;;4.03;2.50;;;;;;;;;;5066156;28;20476;-75
2021/07/26 11:22:02;;;;;;;3.03;2.40;;;;;;;;;;5069103;28;20786;-75
2021/07/26 11:24:44;;;;;;;4.00;3.00;;;;;;;;;;5064172;28;20464;-75
2021/07/26 11:27:13;;;;;;;3.73;2.80;;;;;;;;;;5050745;28;20441;-75
2021/07/26 11:29:42;;;;;;;3.70;2.60;;;;;;;;;;5066268;28;20456;-75
2021/07/26 11:32:09;;;;;;;3.73;2.27;;;;;;;;;;5069048;28;20527;-75
2021/07/26 11:34:37;;;;;;;4.50;2.70;;;;;;;;;;5066278;28;20821;-76
2021/07/26 11:37:07;;;;;;;3.87;2.50;;;;;;;;;;5070307;28;21134;-75
2021/07/26 11:39:49;;;;;;;3.33;2.33;;;;;;;;;;5069757;28;20461;-74
2021/07/26 11:42:20;;;;;;;2.40;2.20;;;;;;;;;;5062545;28;21026;-75
2021/07/26 11:44:49;;;;;;;2.90;2.60;;;;;;;;;;5068346;28;20482;-76
2021/07/26 11:47:17;;;;;;;2.40;2.20;;;;;;;;;;5064835;28;20460;-74
2021/07/26 11:49:46;;;;;;;3.20;2.23;;;;;;;;;;5067504;28;20464;-74
2021/07/26 11:52:13;;;;;;;4.70;2.23;;;;;;;;;;5064182;28;20487;-74
2021/07/26 11:54:41;;;;;;;2.70;2.10;;;;;;;;;;5070263;28;20507;-74
2021/07/26 11:57:08;;;;;;;4.97;2.37;;;;;;;;;;5070383;28;20475;-75
2021/07/26 11:59:37;;;;;;;2.50;2.30;;;;;;;;;;5068425;28;20484;-75
2021/07/26 12:02:07;;;;;;;2.53;2.33;;;;;;;;;;5068730;28;21013;-74
2021/07/26 12:04:34;;;;;;;3.10;2.43;;;;;;;;;;5061336;28;20456;-74
2021/07/26 12:07:02;;;;;;;3.10;2.10;;;;;;;;;;5066635;28;20920;-75
2021/07/26 12:09:30;;;;;;;2.27;2.00;;;;;;;;;;5069591;28;20461;-74
2021/07/26 12:12:08;;;;;;;2.23;2.03;;;;;;;;;;5066484;28;21008;-75
2021/07/26 12:14:35;;;;;;;2.70;2.10;;;;;;;;;;5069799;28;20845;-74
2021/07/26 12:17:05;;;;;;;3.37;2.40;;;;;;;;;;5061511;28;20467;-74
2021/07/26 12:19:33;;;;;;;2.90;2.30;;;;;;;;;;5068127;28;21159;-74
2021/07/26 12:22:15;;;;;;;2.30;2.10;;;;;;;;;;5066888;28;20449;-75
2021/07/26 12:24:44;;;;;;;5.73;2.50;;;;;;;;;;5068319;28;20444;-75
2021/07/26 12:27:11;;;;;;;2.23;2.00;;;;;;;;;;5068099;28;20456;-77
2021/07/26 12:29:53;;;;;;;2.87;2.20;;;;;;;;;;5060906;28;22600;-75
2021/07/26 12:32:22;;;;;;;2.30;2.10;;;;;;;;;;5060215;28;20456;-75
2021/07/26 12:35:04;;;;;;;2.67;2.47;;;;;;;;;;5062457;28;20475;-75
2021/07/26 12:37:31;;;;;;;2.33;2.13;;;;;;;;;;5068637;28;20453;-72
2021/07/26 12:40:12;;;;;;;3.10;2.80;;;;;;;;;;5067174;28;20563;-74
2021/07/26 12:42:39;;;;;;;1.97;1.87;;;;;;;;;;5065898;28;20467;-75
2021/07/26 12:45:18;;;;;;;3.10;2.13;;;;;;;;;;5070302;28;20444;-76
2021/07/26 12:47:47;;;;;;;2.67;2.07;;;;;;;;;;5062677;28;20571;-76
2021/07/26 12:50:14;;;;;;;2.50;2.30;;;;;;;;;;5051280;28;20439;-79
2021/07/26 12:52:41;;;;;;;3.07;2.20;;;;;;;;;;5067809;28;20460;-79
2021/07/26 12:55:09;;;;;;;2.30;2.10;;;;;;;;;;5060453;28;20513;-80
2021/07/26 12:57:36;;;;;;;2.70;2.00;;;;;;;;;;5068528;28;20961;-80
2021/07/26 13:00:03;;;;;;;6.03;2.53;;;;;;;;;;5067728;28;20460;-78
2021/07/26 13:02:30;;;;;;;2.33;2.13;;;;;;;;;;5069120;28;20440;-77
2021/07/26 13:04:59;;;;;;;2.10;1.90;;;;;;;;;;5067261;28;20457;-78
2021/07/26 13:07:26;;;;;;;2.20;2.00;;;;;;;;;;5066037;28;20462;-80
2021/07/26 13:09:53;;;;;;;1.67;1.57;;;;;;;;;;5071468;28;20571;-79
2021/07/26 13:12:20;;;;;;;2.10;1.90;;;;;;;;;;5063904;28;20460;-79
2021/07/26 13:14:47;;;;;;;2.30;2.10;;;;;;;;;;5069754;28;20488;-79
2021/07/26 13:17:15;;;;;;;2.47;2.27;;;;;;;;;;5064538;28;20435;-78
2021/07/26 13:19:42;;;;;;;2.17;1.97;;;;;;;;;;5064736;28;20457;-76
2021/07/26 13:22:10;;;;;;;3.40;2.20;;;;;;;;;;5069433;28;20432;-78
2021/07/26 13:24:37;;;;;;;3.70;2.10;;;;;;;;;;5066380;28;20487;-78
2021/07/26 13:27:04;;;;;;;2.30;2.10;;;;;;;;;;5054329;28;20941;-78
2021/07/26 13:29:32;;;;;;;2.97;2.70;;;;;;;;;;5068911;28;20476;-77
2021/07/26 13:31:59;;;;;;;2.53;2.00;;;;;;;;;;5061201;28;20451;-76
2021/07/26 13:34:26;;;;;;;3.07;2.60;;;;;;;;;;5061552;28;20483;-76
2021/07/26 13:36:53;;;;;;;2.43;2.23;;;;;;;;;;5062268;28;20962;-77
2021/07/26 13:39:22;;;;;;;3.63;2.80;;;;;;;;;;5068656;28;20969;-79
2021/07/26 13:41:52;;;;;;;2.90;2.57;;;;;;;;;;5065779;28;20845;-78
2021/07/26 13:44:19;;;;;;;2.30;2.10;;;;;;;;;;5065045;28;20448;-78
2021/07/26 13:46:47;;;;;;;2.77;2.40;;;;;;;;;;5062122;28;20453;-76
2021/07/26 13:49:14;;;;;;;1.97;1.70;;;;;;;;;;5060995;28;20511;-78
2021/07/26 13:51:41;;;;;;;2.23;2.03;;;;;;;;;;5068613;28;20440;-79
2021/07/26 13:54:08;;;;;;;2.23;2.03;;;;;;;;;;5060275;28;20484;-77
2021/07/26 13:56:37;;;;;;;3.00;1.93;;;;;;;;;;5068670;28;20451;-76
2021/07/26 13:59:04;;;;;;;2.57;2.10;;;;;;;;;;5069087;28;20460;-78
2021/07/26 14:01:31;;;;;;;2.50;2.30;;;;;;;;;;5058565;28;20907;-79
2021/07/26 14:03:59;;;;;;;3.13;2.10;;;;;;;;;;5067182;28;20440;-77
2021/07/26 14:06:28;;;;;;;2.80;2.43;;;;;;;;;;5067160;28;20804;-78
2021/07/26 14:08:55;;;;;;;2.57;2.37;;;;;;;;;;5061668;28;20472;-77
2021/07/26 14:11:22;;;;;;;2.40;2.20;;;;;;;;;;5068910;28;20436;-77
2021/07/26 14:13:51;;;;;;;3.10;1.77;;;;;;;;;;5066296;28;20922;-78
2021/07/26 14:16:18;;;;;;;2.80;1.90;;;;;;;;;;5056385;28;20452;-76
2021/07/26 14:18:45;;;;;;;3.17;2.10;;;;;;;;;;5068638;28;20451;-77
2021/07/26 14:21:13;;;;;;;3.00;2.30;;;;;;;;;;5063850;28;20864;-79
2021/07/26 14:23:40;;;;;;;3.27;2.33;;;;;;;;;;5063579;28;20826;-79
2021/07/26 14:26:07;;;;;;;3.70;2.70;;;;;;;;;;5068119;28;20432;-79
2021/07/26 14:28:37;;;;;;;2.63;2.40;;;;;;;;;;5059867;28;20478;-78
2021/07/26 14:31:05;;;;;;;2.60;2.10;;;;;;;;;;5062267;28;20503;-79
2021/07/26 14:33:32;;;;;;;3.53;2.87;;;;;;;;;;5067307;28;20451;-77
2021/07/26 14:35:59;;;;;;;10.07;3.10;;;;;;;;;;5064982;28;20480;-80
2021/07/26 14:38:27;;;;;;;3.73;2.67;;;;;;;;;;5068535;28;20448;-77
2021/07/26 14:40:54;;;;;;;4.40;3.13;;;;;;;;;;5067211;28;20881;-79
2021/07/26 14:43:21;;;;;;;3.13;2.83;;;;;;;;;;5067891;28;20448;-78
2021/07/26 14:45:48;;;;;;;3.10;2.90;;;;;;;;;;5070654;28;21044;-80
2021/07/26 14:48:17;;;;;;;3.33;2.37;;;;;;;;;;5067613;28;20479;-79
2021/07/26 14:50:45;;;;;;;4.93;2.70;;;;;;;;;;5071585;28;20466;-79
2021/07/26 14:53:12;;;;;;;6.77;3.13;;;;;;;;;;5063569;28;21023;-79
2021/07/26 14:55:40;;;;;;;3.50;2.43;;;;;;;;;;5073545;28;20598;-78